createdAt,value
2023-03-02T00:03:23.864Z,55.40
2023-03-02T00:13:48.246Z,55.65
2023-03-02T00:24:14.822Z,55.83
2023-03-02T00:34:39.396Z,56.01
2023-03-02T00:45:05.613Z,55.55
2023-03-02T00:55:29.784Z,55.79
2023-03-02T01:05:54.750Z,55.96
2023-03-02T01:16:18.993Z,55.70
2023-03-02T01:26:43.298Z,56.18
2023-03-02T01:37:07.483Z,55.83
2023-03-02T01:47:34.789Z,56.33
2023-03-02T01:58:00.851Z,56.24
2023-03-02T02:08:25.858Z,56.02
2023-03-02T02:18:50.159Z,55.92
2023-03-02T02:29:21.992Z,56.20
2023-03-02T02:39:48.733Z,56.15
2023-03-02T02:50:19.386Z,56.11
2023-03-02T03:00:43.626Z,56.02
2023-03-02T03:11:08.905Z,55.90
2023-03-02T03:21:33.768Z,56.13
2023-03-02T03:32:00.090Z,56.15
2023-03-02T03:42:24.321Z,55.72
2023-03-02T03:52:48.986Z,56.26
2023-03-02T04:03:13.312Z,56.84
2023-03-02T04:13:37.502Z,56.78
2023-03-02T04:24:01.708Z,57.02
2023-03-02T04:34:26.004Z,56.79
2023-03-02T04:44:50.213Z,56.44
2023-03-02T04:55:20.592Z,56.22
2023-03-02T05:05:44.928Z,56.41
2023-03-02T05:16:09.320Z,56.55
2023-03-02T05:26:33.953Z,56.35
2023-03-02T05:36:58.311Z,56.19
2023-03-02T05:47:22.518Z,56.27
2023-03-02T05:57:48.666Z,56.58
2023-03-02T06:08:12.942Z,56.45
2023-03-02T06:18:39.717Z,56.50
2023-03-02T06:29:06.025Z,56.74
2023-03-02T06:39:30.214Z,56.79
2023-03-02T06:49:54.475Z,57.42
2023-03-02T07:00:26.046Z,58.24
2023-03-02T07:10:50.430Z,58.50
2023-03-02T07:21:15.342Z,58.91
2023-03-02T07:31:40.165Z,59.03
2023-03-02T07:42:08.237Z,59.02
2023-03-02T07:52:32.451Z,59.23
2023-03-02T08:02:57.322Z,57.39
2023-03-02T08:13:22.341Z,56.60
2023-03-02T08:23:47.452Z,56.03
2023-03-02T08:34:11.965Z,54.62
2023-03-02T08:44:37.034Z,53.09
2023-03-02T08:55:03.870Z,52.55
2023-03-02T09:05:29.204Z,52.08
2023-03-02T09:15:54.078Z,52.45
2023-03-02T09:26:18.387Z,51.47
2023-03-02T09:36:43.332Z,50.69
2023-03-02T09:47:29.944Z,48.78
2023-03-02T09:58:01.927Z,48.05
2023-03-02T10:08:28.668Z,47.91
2023-03-02T10:19:05.214Z,47.02
2023-03-02T10:29:47.260Z,45.93
2023-03-02T10:40:29.587Z,44.61
2023-03-02T10:50:56.517Z,44.43
2023-03-02T11:01:20.843Z,43.95
2023-03-02T11:11:52.931Z,42.58
2023-03-02T11:22:27.783Z,41.94
2023-03-02T11:32:57.925Z,43.11
2023-03-02T11:43:22.267Z,43.91
2023-03-02T11:53:50.134Z,43.79
2023-03-02T12:04:28.406Z,43.81
2023-03-02T12:14:53.211Z,44.17
2023-03-02T12:25:36.287Z,43.85
2023-03-02T12:36:11.662Z,44.22
2023-03-02T12:46:39.463Z,44.13
2023-03-02T12:57:08.103Z,43.60
2023-03-02T13:07:38.048Z,43.54
2023-03-02T13:18:03.082Z,43.36
2023-03-02T13:28:29.685Z,43.20
2023-03-02T13:38:59.050Z,43.48
2023-03-02T13:49:32.004Z,43.19
2023-03-02T13:59:57.289Z,43.31
2023-03-02T14:10:22.114Z,43.72
2023-03-02T14:20:47.426Z,44.28
2023-03-02T14:31:12.498Z,44.34
2023-03-02T14:41:51.183Z,44.35
2023-03-02T14:52:30.279Z,44.59
2023-03-02T15:02:54.821Z,43.95
2023-03-02T15:13:19.736Z,43.67
2023-03-02T15:23:44.720Z,44.16
2023-03-02T15:34:08.947Z,44.14
2023-03-02T15:44:34.058Z,43.95
2023-03-02T15:54:58.499Z,43.94
2023-03-02T16:05:22.811Z,43.93
2023-03-02T16:15:47.147Z,44.25
2023-03-02T16:26:14.670Z,44.78
2023-03-02T16:36:40.887Z,45.33
2023-03-02T16:47:05.600Z,45.36
2023-03-02T16:57:29.820Z,45.83
2023-03-02T17:07:56.442Z,45.76
2023-03-02T17:18:21.359Z,45.35
2023-03-02T17:28:45.628Z,46.06
2023-03-02T17:39:10.285Z,46.11
2023-03-02T17:49:37.530Z,46.86
2023-03-02T18:00:02.256Z,47.82
2023-03-02T18:10:26.559Z,47.92
2023-03-02T18:20:50.876Z,48.14
2023-03-02T18:31:17.832Z,48.62
2023-03-02T18:41:43.276Z,49.18
2023-03-02T18:52:09.411Z,50.25
2023-03-02T19:02:34.354Z,50.82
2023-03-02T19:12:58.828Z,50.75
2023-03-02T19:23:23.306Z,50.58
2023-03-02T19:33:48.011Z,51.31
2023-03-02T19:44:12.356Z,51.79
2023-03-02T19:54:36.635Z,51.53
2023-03-02T20:05:01.566Z,51.74
2023-03-02T20:15:37.873Z,52.38
2023-03-02T20:26:02.849Z,52.55
2023-03-02T20:36:30.074Z,53.12
2023-03-02T20:46:58.512Z,53.38
2023-03-02T20:57:23.116Z,53.38
2023-03-02T21:07:48.081Z,53.93
2023-03-02T21:18:12.824Z,54.43
2023-03-02T21:28:38.248Z,54.41
2023-03-02T21:39:04.147Z,54.89
2023-03-02T21:49:28.514Z,54.98
2023-03-02T21:59:54.100Z,55.06
2023-03-02T22:10:24.585Z,55.14
2023-03-02T22:20:50.313Z,55.28
2023-03-02T22:31:20.029Z,55.19
2023-03-02T22:41:44.284Z,56.27
2023-03-02T22:52:17.173Z,56.41
2023-03-02T23:02:44.109Z,56.62
2023-03-02T23:13:09.581Z,56.36
2023-03-02T23:23:34.308Z,56.82
2023-03-02T23:33:58.509Z,57.21
2023-03-02T23:44:22.852Z,57.61
2023-03-02T23:54:47.243Z,57.34
